sensor_id;sensor_type;location;lat;lon;timestamp;pressure;altitude;pressure_sealevel;temperature;humidity
52855;BME280;38719;51.418;7.286;2023-09-19T00:00:43;98999.28;;;17.48;72.93
52855;BME280;38719;51.418;7.286;2023-09-19T00:03:15;99006.91;;;17.43;72.97
52855;BME280;38719;51.418;7.286;2023-09-19T00:05:43;99006.06;;;17.42;72.76
52855;BME280;38719;51.418;7.286;2023-09-19T00:08:12;99004.13;;;17.54;73.34
52855;BME280;38719;51.418;7.286;2023-09-19T00:10:41;99017.25;;;17.47;72.95
52855;BME280;38719;51.418;7.286;2023-09-19T00:13:09;99028.72;;;17.39;73.41
52855;BME280;38719;51.418;7.286;2023-09-19T00:15:42;99019.34;;;17.34;73.51
52855;BME280;38719;51.418;7.286;2023-09-19T00:18:17;99022.44;;;17.29;73.39
52855;BME280;38719;51.418;7.286;2023-09-19T00:20:45;99027.53;;;17.32;73.16
52855;BME280;38719;51.418;7.286;2023-09-19T00:23:14;99032.22;;;17.30;72.96
52855;BME280;38719;51.418;7.286;2023-09-19T00:25:41;99035.44;;;17.24;72.91
52855;BME280;38719;51.418;7.286;2023-09-19T00:28:09;99030.19;;;17.22;72.55
52855;BME280;38719;51.418;7.286;2023-09-19T00:30:37;99041.19;;;17.10;72.61
52855;BME280;38719;51.418;7.286;2023-09-19T00:33:06;99033.56;;;17.15;72.42
52855;BME280;38719;51.418;7.286;2023-09-19T00:35:35;99034.28;;;17.17;72.24
52855;BME280;38719;51.418;7.286;2023-09-19T00:38:03;99037.59;;;17.30;71.91
52855;BME280;38719;51.418;7.286;2023-09-19T00:40:33;99045.56;;;17.11;71.35
52855;BME280;38719;51.418;7.286;2023-09-19T00:43:02;99040.38;;;16.98;71.38
52855;BME280;38719;51.418;7.286;2023-09-19T00:45:29;99042.63;;;16.92;71.77
52855;BME280;38719;51.418;7.286;2023-09-19T00:48:01;99051.94;;;17.10;71.12
52855;BME280;38719;51.418;7.286;2023-09-19T00:50:30;99057.13;;;17.01;71.52
52855;BME280;38719;51.418;7.286;2023-09-19T00:52:59;99053.13;;;16.96;71.39
52855;BME280;38719;51.418;7.286;2023-09-19T00:55:29;99056.69;;;16.85;71.20
52855;BME280;38719;51.418;7.286;2023-09-19T00:57:59;99059.38;;;16.85;71.41
52855;BME280;38719;51.418;7.286;2023-09-19T01:00:27;99054.69;;;16.77;71.04
52855;BME280;38719;51.418;7.286;2023-09-19T01:02:56;99054.41;;;16.80;71.44
52855;BME280;38719;51.418;7.286;2023-09-19T01:05:24;99060.44;;;16.72;71.42
52855;BME280;38719;51.418;7.286;2023-09-19T01:07:52;99059.06;;;16.78;71.04
52855;BME280;38719;51.418;7.286;2023-09-19T01:10:21;99062.06;;;16.64;70.86
52855;BME280;38719;51.418;7.286;2023-09-19T01:12:55;99062.06;;;16.64;71.06
52855;BME280;38719;51.418;7.286;2023-09-19T01:15:40;99070.16;;;16.85;71.23
52855;BME280;38719;51.418;7.286;2023-09-19T01:18:20;99067.31;;;16.86;70.96
52855;BME280;38719;51.418;7.286;2023-09-19T01:20:55;99060.66;;;16.81;70.50
52855;BME280;38719;51.418;7.286;2023-09-19T01:23:36;99072.25;;;16.81;70.86
52855;BME280;38719;51.418;7.286;2023-09-19T01:26:18;99080.97;;;16.73;70.15
52855;BME280;38719;51.418;7.286;2023-09-19T01:29:00;99078.16;;;16.96;70.00
52855;BME280;38719;51.418;7.286;2023-09-19T01:31:31;99081.63;;;16.87;70.16
52855;BME280;38719;51.418;7.286;2023-09-19T01:34:02;99079.72;;;16.77;70.61
52855;BME280;38719;51.418;7.286;2023-09-19T01:36:33;99078.94;;;16.66;70.22
52855;BME280;38719;51.418;7.286;2023-09-19T01:39:03;99086.88;;;16.67;71.46
52855;BME280;38719;51.418;7.286;2023-09-19T01:41:58;99085.81;;;16.80;70.56
52855;BME280;38719;51.418;7.286;2023-09-19T01:44:34;99099.63;;;16.54;70.69
52855;BME280;38719;51.418;7.286;2023-09-19T01:47:14;99097.31;;;16.49;71.31
52855;BME280;38719;51.418;7.286;2023-09-19T01:49:50;99099.81;;;16.30;71.80
52855;BME280;38719;51.418;7.286;2023-09-19T01:52:28;99101.72;;;16.50;71.28
52855;BME280;38719;51.418;7.286;2023-09-19T01:55:02;99111.44;;;16.63;70.20
52855;BME280;38719;51.418;7.286;2023-09-19T01:57:36;99110.59;;;16.51;70.18
52855;BME280;38719;51.418;7.286;2023-09-19T02:00:10;99109.63;;;16.52;70.56
52855;BME280;38719;51.418;7.286;2023-09-19T02:02:43;99097.31;;;16.49;69.82
52855;BME280;38719;51.418;7.286;2023-09-19T02:05:12;99105.50;;;16.48;70.08
52855;BME280;38719;51.418;7.286;2023-09-19T02:07:40;99100.72;;;16.51;70.37
52855;BME280;38719;51.418;7.286;2023-09-19T02:10:08;99092.06;;;16.48;70.20
52855;BME280;38719;51.418;7.286;2023-09-19T02:12:38;99098.28;;;16.48;70.34
52855;BME280;38719;51.418;7.286;2023-09-19T02:15:06;99108.19;;;16.48;69.72
52855;BME280;38719;51.418;7.286;2023-09-19T02:17:34;99115.97;;;16.51;69.55
52855;BME280;38719;51.418;7.286;2023-09-19T02:20:04;99111.19;;;16.66;69.25
52855;BME280;38719;51.418;7.286;2023-09-19T02:22:40;99124.88;;;16.63;68.67
52855;BME280;38719;51.418;7.286;2023-09-19T02:25:08;99119.13;;;16.67;68.46
52855;BME280;38719;51.418;7.286;2023-09-19T02:27:36;99126.91;;;16.70;68.11
52855;BME280;38719;51.418;7.286;2023-09-19T02:30:05;99122.50;;;16.69;67.84
52855;BME280;38719;51.418;7.286;2023-09-19T02:32:32;99119.19;;;16.44;68.57
52855;BME280;38719;51.418;7.286;2023-09-19T02:35:06;99139.88;;;16.33;69.03
52855;BME280;38719;51.418;7.286;2023-09-19T02:37:34;99133.16;;;16.27;69.12
52855;BME280;38719;51.418;7.286;2023-09-19T02:40:02;99130.59;;;16.25;69.81
52855;BME280;38719;51.418;7.286;2023-09-19T02:42:46;99134.00;;;16.39;69.20
52855;BME280;38719;51.418;7.286;2023-09-19T02:45:16;99141.34;;;16.25;68.96
52855;BME280;38719;51.418;7.286;2023-09-19T02:47:47;99135.56;;;16.41;69.27
52855;BME280;38719;51.418;7.286;2023-09-19T02:50:17;99142.47;;;16.55;68.81
52855;BME280;38719;51.418;7.286;2023-09-19T02:52:46;99142.66;;;16.42;68.25
52855;BME280;38719;51.418;7.286;2023-09-19T02:55:16;99137.53;;;16.39;69.51
52855;BME280;38719;51.418;7.286;2023-09-19T02:57:46;99135.47;;;16.32;69.36
52855;BME280;38719;51.418;7.286;2023-09-19T03:00:15;99146.59;;;16.27;68.34
52855;BME280;38719;51.418;7.286;2023-09-19T03:02:43;99145.09;;;16.34;68.65
52855;BME280;38719;51.418;7.286;2023-09-19T03:05:11;99152.59;;;16.19;69.50
52855;BME280;38719;51.418;7.286;2023-09-19T03:07:40;99152.72;;;16.18;69.67
52855;BME280;38719;51.418;7.286;2023-09-19T03:10:09;99160.31;;;16.13;68.41
52855;BME280;38719;51.418;7.286;2023-09-19T03:12:37;99170.66;;;16.17;68.74
52855;BME280;38719;51.418;7.286;2023-09-19T03:15:07;99162.25;;;16.10;68.53
52855;BME280;38719;51.418;7.286;2023-09-19T03:17:36;99172.13;;;16.21;68.52
52855;BME280;38719;51.418;7.286;2023-09-19T03:20:05;99176.25;;;16.25;67.17
52855;BME280;38719;51.418;7.286;2023-09-19T03:22:36;99165.19;;;16.19;67.00
52855;BME280;38719;51.418;7.286;2023-09-19T03:25:07;99174.41;;;16.26;66.47
52855;BME280;38719;51.418;7.286;2023-09-19T03:27:35;99177.59;;;16.20;66.40
52855;BME280;38719;51.418;7.286;2023-09-19T03:30:03;99173.69;;;16.35;65.97
52855;BME280;38719;51.418;7.286;2023-09-19T03:32:35;99175.78;;;16.20;65.79
52855;BME280;38719;51.418;7.286;2023-09-19T03:35:03;99175.06;;;15.95;65.36
52855;BME280;38719;51.418;7.286;2023-09-19T03:37:32;99164.94;;;16.10;65.46
52855;BME280;38719;51.418;7.286;2023-09-19T03:40:00;99171.88;;;16.13;65.04
52855;BME280;38719;51.418;7.286;2023-09-19T03:42:32;99173.00;;;15.99;64.46
52855;BME280;38719;51.418;7.286;2023-09-19T03:45:02;99179.34;;;15.87;65.32
52855;BME280;38719;51.418;7.286;2023-09-19T03:47:30;99178.31;;;15.65;65.96
52855;BME280;38719;51.418;7.286;2023-09-19T03:49:58;99177.63;;;15.86;65.86
52855;BME280;38719;51.418;7.286;2023-09-19T03:52:25;99181.28;;;15.85;65.30
52855;BME280;38719;51.418;7.286;2023-09-19T03:54:53;99176.66;;;15.87;65.21
52855;BME280;38719;51.418;7.286;2023-09-19T03:57:20;99173.72;;;15.90;65.58
52855;BME280;38719;51.418;7.286;2023-09-19T03:59:49;99176.31;;;16.03;65.11
52855;BME280;38719;51.418;7.286;2023-09-19T04:02:19;99178.59;;;16.07;64.78
52855;BME280;38719;51.418;7.286;2023-09-19T04:04:50;99180.31;;;16.08;65.16
52855;BME280;38719;51.418;7.286;2023-09-19T04:07:18;99182.03;;;16.09;64.80
52855;BME280;38719;51.418;7.286;2023-09-19T04:09:49;99176.91;;;16.06;64.79
52855;BME280;38719;51.418;7.286;2023-09-19T04:12:16;99175.19;;;16.17;65.49
52855;BME280;38719;51.418;7.286;2023-09-19T04:14:44;99172.75;;;16.25;64.38
52855;BME280;38719;51.418;7.286;2023-09-19T04:17:13;99182.28;;;16.06;64.91
52855;BME280;38719;51.418;7.286;2023-09-19T04:19:41;99174.91;;;15.74;66.34
52855;BME280;38719;51.418;7.286;2023-09-19T04:22:08;99186.66;;;15.85;66.22
52855;BME280;38719;51.418;7.286;2023-09-19T04:24:37;99180.56;;;16.05;65.64
52855;BME280;38719;51.418;7.286;2023-09-19T04:27:06;99177.13;;;16.15;65.69
52855;BME280;38719;51.418;7.286;2023-09-19T04:29:36;99182.16;;;16.08;65.62
52855;BME280;38719;51.418;7.286;2023-09-19T04:32:04;99181.56;;;15.93;66.59
52855;BME280;38719;51.418;7.286;2023-09-19T04:34:34;99190.69;;;16.02;66.61
52855;BME280;38719;51.418;7.286;2023-09-19T04:37:01;99188.63;;;15.94;66.67
52855;BME280;38719;51.418;7.286;2023-09-19T04:39:30;99187.41;;;15.98;66.61
52855;BME280;38719;51.418;7.286;2023-09-19T04:41:58;99185.31;;;16.13;66.65
52855;BME280;38719;51.418;7.286;2023-09-19T04:44:26;99184.81;;;16.19;65.84
52855;BME280;38719;51.418;7.286;2023-09-19T04:46:54;99186.16;;;16.02;66.75
52855;BME280;38719;51.418;7.286;2023-09-19T04:49:22;99195.94;;;16.15;66.64
52855;BME280;38719;51.418;7.286;2023-09-19T04:51:51;99183.00;;;16.31;66.18
52855;BME280;38719;51.418;7.286;2023-09-19T04:54:20;99184.09;;;16.28;66.04
52855;BME280;38719;51.418;7.286;2023-09-19T04:56:48;99190.66;;;16.36;66.01
52855;BME280;38719;51.418;7.286;2023-09-19T04:59:16;99192.00;;;16.30;65.46
52855;BME280;38719;51.418;7.286;2023-09-19T05:01:43;99193.38;;;16.13;65.89
52855;BME280;38719;51.418;7.286;2023-09-19T05:04:11;99188.38;;;16.08;66.29
52855;BME280;38719;51.418;7.286;2023-09-19T05:06:39;99197.75;;;16.25;65.97
52855;BME280;38719;51.418;7.286;2023-09-19T05:09:08;99198.84;;;16.34;66.12
52855;BME280;38719;51.418;7.286;2023-09-19T05:11:36;99213.75;;;16.27;65.57
52855;BME280;38719;51.418;7.286;2023-09-19T05:14:05;99215.97;;;15.99;66.24
52855;BME280;38719;51.418;7.286;2023-09-19T05:16:32;99226.56;;;16.12;66.53
52855;BME280;38719;51.418;7.286;2023-09-19T05:19:01;99230.72;;;16.05;66.26
52855;BME280;38719;51.418;7.286;2023-09-19T05:21:30;99233.91;;;16.10;66.54
52855;BME280;38719;51.418;7.286;2023-09-19T05:23:57;99228.13;;;15.80;66.73
52855;BME280;38719;51.418;7.286;2023-09-19T05:26:26;99230.06;;;15.78;66.65
52855;BME280;38719;51.418;7.286;2023-09-19T05:28:54;99242.50;;;15.79;66.76
52855;BME280;38719;51.418;7.286;2023-09-19T05:31:22;99246.00;;;15.93;66.72
52855;BME280;38719;51.418;7.286;2023-09-19T05:33:50;99254.53;;;15.98;66.32
52855;BME280;38719;51.418;7.286;2023-09-19T05:36:18;99260.72;;;15.87;66.53
52855;BME280;38719;51.418;7.286;2023-09-19T05:38:46;99265.69;;;15.69;66.80
52855;BME280;38719;51.418;7.286;2023-09-19T05:41:16;99266.91;;;15.76;67.51
52855;BME280;38719;51.418;7.286;2023-09-19T05:43:45;99259.31;;;15.70;67.24
52855;BME280;38719;51.418;7.286;2023-09-19T05:46:13;99257.50;;;15.71;66.93
52855;BME280;38719;51.418;7.286;2023-09-19T05:48:42;99267.38;;;15.70;67.49
52855;BME280;38719;51.418;7.286;2023-09-19T05:51:10;99279.59;;;15.74;67.44
52855;BME280;38719;51.418;7.286;2023-09-19T05:53:38;99285.88;;;15.86;66.46
52855;BME280;38719;51.418;7.286;2023-09-19T05:56:06;99279.66;;;15.86;66.70
52855;BME280;38719;51.418;7.286;2023-09-19T05:58:33;99294.31;;;15.93;66.51
52855;BME280;38719;51.418;7.286;2023-09-19T06:01:02;99285.78;;;15.88;66.96
52855;BME280;38719;51.418;7.286;2023-09-19T06:03:30;99291.38;;;15.85;67.09
52855;BME280;38719;51.418;7.286;2023-09-19T06:05:58;99297.81;;;15.82;67.20
52855;BME280;38719;51.418;7.286;2023-09-19T06:08:26;99289.38;;;15.75;67.03
52855;BME280;38719;51.418;7.286;2023-09-19T06:10:54;99289.16;;;15.90;66.53
52855;BME280;38719;51.418;7.286;2023-09-19T06:13:22;99283.31;;;15.85;66.81
52855;BME280;38719;51.418;7.286;2023-09-19T06:15:53;99293.97;;;15.98;67.03
52855;BME280;38719;51.418;7.286;2023-09-19T06:18:21;99294.47;;;16.03;66.31
52855;BME280;38719;51.418;7.286;2023-09-19T06:20:52;99292.13;;;16.09;66.62
52855;BME280;38719;51.418;7.286;2023-09-19T06:23:21;99294.47;;;16.14;66.26
52855;BME280;38719;51.418;7.286;2023-09-19T06:25:50;99295.56;;;16.11;65.98
52855;BME280;38719;51.418;7.286;2023-09-19T06:28:18;99289.78;;;16.05;66.04
52855;BME280;38719;51.418;7.286;2023-09-19T06:30:50;99286.63;;;16.00;66.94
52855;BME280;38719;51.418;7.286;2023-09-19T06:33:17;99283.09;;;16.10;66.98
52855;BME280;38719;51.418;7.286;2023-09-19T06:35:49;99299.91;;;15.90;67.83
52855;BME280;38719;51.418;7.286;2023-09-19T06:38:19;99297.69;;;15.84;67.20
52855;BME280;38719;51.418;7.286;2023-09-19T06:40:46;99307.13;;;15.89;67.35
52855;BME280;38719;51.418;7.286;2023-09-19T06:43:14;99301.50;;;15.92;67.59
52855;BME280;38719;51.418;7.286;2023-09-19T06:45:42;99306.38;;;15.99;67.02
52855;BME280;38719;51.418;7.286;2023-09-19T06:48:09;99303.69;;;15.87;67.15
52855;BME280;38719;51.418;7.286;2023-09-19T06:50:38;99300.88;;;15.89;67.66
52855;BME280;38719;51.418;7.286;2023-09-19T06:53:08;99292.81;;;15.89;67.72
52855;BME280;38719;51.418;7.286;2023-09-19T06:55:36;99295.78;;;15.97;67.57
52855;BME280;38719;51.418;7.286;2023-09-19T06:58:04;99288.59;;;16.09;68.51
52855;BME280;38719;51.418;7.286;2023-09-19T07:00:32;99297.03;;;16.16;67.32
52855;BME280;38719;51.418;7.286;2023-09-19T07:03:04;99303.13;;;16.18;67.40
52855;BME280;38719;51.418;7.286;2023-09-19T07:05:35;99308.72;;;16.26;67.20
52855;BME280;38719;51.418;7.286;2023-09-19T07:08:07;99306.44;;;16.33;67.00
52855;BME280;38719;51.418;7.286;2023-09-19T07:10:37;99305.94;;;16.39;66.39
52855;BME280;38719;51.418;7.286;2023-09-19T07:13:07;99305.34;;;16.35;66.90
52855;BME280;38719;51.418;7.286;2023-09-19T07:15:38;99309.00;;;16.46;66.84
52855;BME280;38719;51.418;7.286;2023-09-19T07:18:13;99301.03;;;16.55;65.90
52855;BME280;38719;51.418;7.286;2023-09-19T07:20:43;99299.22;;;16.56;66.19
52855;BME280;38719;51.418;7.286;2023-09-19T07:23:15;99310.09;;;16.43;65.98
52855;BME280;38719;51.418;7.286;2023-09-19T07:25:46;99312.91;;;16.53;66.48
52855;BME280;38719;51.418;7.286;2023-09-19T07:28:15;99316.56;;;16.40;66.47
52855;BME280;38719;51.418;7.286;2023-09-19T07:30:43;99318.75;;;16.47;66.41
52855;BME280;38719;51.418;7.286;2023-09-19T07:33:11;99317.78;;;16.48;66.77
52855;BME280;38719;51.418;7.286;2023-09-19T07:35:39;99326.34;;;16.53;66.64
52855;BME280;38719;51.418;7.286;2023-09-19T07:38:07;99331.22;;;16.48;66.04
52855;BME280;38719;51.418;7.286;2023-09-19T07:40:36;99334.03;;;16.57;66.45
52855;BME280;38719;51.418;7.286;2023-09-19T07:43:05;99332.09;;;16.59;66.54
52855;BME280;38719;51.418;7.286;2023-09-19T07:45:34;99326.94;;;16.68;66.43
52855;BME280;38719;51.418;7.286;2023-09-19T07:48:03;99323.66;;;16.53;66.65
52855;BME280;38719;51.418;7.286;2023-09-19T07:50:33;99327.22;;;16.53;65.92
52855;BME280;38719;51.418;7.286;2023-09-19T07:53:03;99322.81;;;16.41;65.98
52855;BME280;38719;51.418;7.286;2023-09-19T07:55:31;99334.25;;;16.54;66.56
52855;BME280;38719;51.418;7.286;2023-09-19T07:58:00;99324.13;;;16.58;66.74
52855;BME280;38719;51.418;7.286;2023-09-19T08:00:31;99330.00;;;16.74;66.19
52855;BME280;38719;51.418;7.286;2023-09-19T08:03:01;99326.06;;;16.79;66.59
52855;BME280;38719;51.418;7.286;2023-09-19T08:05:41;99333.66;;;16.85;66.02
52855;BME280;38719;51.418;7.286;2023-09-19T08:08:10;99336.38;;;16.62;65.98
52855;BME280;38719;51.418;7.286;2023-09-19T08:10:40;99342.81;;;16.82;66.48
52855;BME280;38719;51.418;7.286;2023-09-19T08:13:10;99354.31;;;16.62;66.01
52855;BME280;38719;51.418;7.286;2023-09-19T08:15:44;99351.25;;;16.77;66.31
52855;BME280;38719;51.418;7.286;2023-09-19T08:18:12;99347.59;;;16.79;66.14
52855;BME280;38719;51.418;7.286;2023-09-19T08:20:40;99353.44;;;16.84;65.80
52855;BME280;38719;51.418;7.286;2023-09-19T08:23:08;99359.19;;;16.90;66.05
52855;BME280;38719;51.418;7.286;2023-09-19T08:25:36;99351.88;;;16.92;65.54
52855;BME280;38719;51.418;7.286;2023-09-19T08:28:05;99352.75;;;16.93;66.66
52855;BME280;38719;51.418;7.286;2023-09-19T08:30:38;99356.16;;;16.95;65.65
52855;BME280;38719;51.418;7.286;2023-09-19T08:33:08;99366.88;;;17.06;66.00
52855;BME280;38719;51.418;7.286;2023-09-19T08:35:36;99356.38;;;17.03;65.25
52855;BME280;38719;51.418;7.286;2023-09-19T08:38:06;99363.22;;;16.96;65.52
52855;BME280;38719;51.418;7.286;2023-09-19T08:40:37;99360.53;;;16.96;65.81
52855;BME280;38719;51.418;7.286;2023-09-19T08:43:06;99366.53;;;17.00;65.34
52855;BME280;38719;51.418;7.286;2023-09-19T08:45:34;99357.63;;;16.99;65.83
52855;BME280;38719;51.418;7.286;2023-09-19T08:48:20;99359.19;;;16.79;65.85
52855;BME280;38719;51.418;7.286;2023-09-19T08:50:53;99363.97;;;16.98;66.41
52855;BME280;38719;51.418;7.286;2023-09-19T08:53:26;99354.66;;;17.02;66.39
52855;BME280;38719;51.418;7.286;2023-09-19T08:55:55;99360.66;;;17.06;66.01
52855;BME280;38719;51.418;7.286;2023-09-19T08:58:27;99363.31;;;17.17;65.11
52855;BME280;38719;51.418;7.286;2023-09-19T09:01:00;99354.22;;;17.30;65.58
52855;BME280;38719;51.418;7.286;2023-09-19T09:03:33;99348.28;;;17.47;64.98
52855;BME280;38719;51.418;7.286;2023-09-19T09:06:02;99356.72;;;17.54;65.00
52855;BME280;38719;51.418;7.286;2023-09-19T09:08:31;99365.56;;;17.45;64.41
52855;BME280;38719;51.418;7.286;2023-09-19T09:10:58;99356.31;;;17.26;64.81
52855;BME280;38719;51.418;7.286;2023-09-19T09:13:27;99360.53;;;17.51;64.48
52855;BME280;38719;51.418;7.286;2023-09-19T09:15:54;99368.25;;;17.77;63.67
52855;BME280;38719;51.418;7.286;2023-09-19T09:18:22;99359.59;;;17.73;63.57
52855;BME280;38719;51.418;7.286;2023-09-19T09:20:51;99345.19;;;17.84;63.21
52855;BME280;38719;51.418;7.286;2023-09-19T09:23:19;99361.94;;;17.88;63.21
52855;BME280;38719;51.418;7.286;2023-09-19T09:25:48;99357.94;;;17.82;62.12
52855;BME280;38719;51.418;7.286;2023-09-19T09:28:22;99356.09;;;17.83;62.73
52855;BME280;38719;51.418;7.286;2023-09-19T09:30:50;99336.88;;;17.87;62.38
52855;BME280;38719;51.418;7.286;2023-09-19T09:33:18;99351.16;;;17.88;62.13
52855;BME280;38719;51.418;7.286;2023-09-19T09:35:52;99345.69;;;18.11;61.73
52855;BME280;38719;51.418;7.286;2023-09-19T09:38:20;99342.47;;;18.17;61.51
52855;BME280;38719;51.418;7.286;2023-09-19T09:40:52;99346.22;;;18.26;61.36
52855;BME280;38719;51.418;7.286;2023-09-19T09:43:28;99346.44;;;18.44;61.12
52855;BME280;38719;51.418;7.286;2023-09-19T09:46:14;99344.03;;;18.41;60.28
52855;BME280;38719;51.418;7.286;2023-09-19T09:49:01;99343.03;;;18.42;59.88
52855;BME280;38719;51.418;7.286;2023-09-19T09:52:02;99336.81;;;18.51;60.14
52855;BME280;38719;51.418;7.286;2023-09-19T09:54:37;99342.84;;;18.33;58.64
52855;BME280;38719;51.418;7.286;2023-09-19T09:57:06;99348.69;;;18.39;59.45
52855;BME280;38719;51.418;7.286;2023-09-19T09:59:47;99341.84;;;18.65;59.38
52855;BME280;38719;51.418;7.286;2023-09-19T10:02:16;99339.19;;;18.75;59.74
52855;BME280;38719;51.418;7.286;2023-09-19T10:04:50;99345.19;;;18.79;58.76
52855;BME280;38719;51.418;7.286;2023-09-19T10:07:41;99344.19;;;18.80;59.44
52855;BME280;38719;51.418;7.286;2023-09-19T10:10:29;99338.44;;;19.04;57.89
52855;BME280;38719;51.418;7.286;2023-09-19T10:13:05;99343.13;;;18.92;57.58
52855;BME280;38719;51.418;7.286;2023-09-19T10:15:34;99334.81;;;18.84;57.46
52855;BME280;38719;51.418;7.286;2023-09-19T10:18:04;99341.25;;;18.93;57.22
52855;BME280;38719;51.418;7.286;2023-09-19T10:20:36;99323.25;;;19.03;57.15
52855;BME280;38719;51.418;7.286;2023-09-19T10:23:09;99329.56;;;19.23;57.03
52855;BME280;38719;51.418;7.286;2023-09-19T10:25:40;99328.44;;;19.45;56.73
52855;BME280;38719;51.418;7.286;2023-09-19T10:28:09;99335.66;;;19.55;57.67
52855;BME280;38719;51.418;7.286;2023-09-19T10:30:41;99329.53;;;19.43;55.35
52855;BME280;38719;51.418;7.286;2023-09-19T10:33:11;99330.00;;;19.48;55.23
52855;BME280;38719;51.418;7.286;2023-09-19T10:35:42;99307.94;;;19.62;54.73
52855;BME280;38719;51.418;7.286;2023-09-19T10:38:13;99309.38;;;19.57;54.98
52855;BME280;38719;51.418;7.286;2023-09-19T10:40:48;99317.19;;;19.50;54.80
52855;BME280;38719;51.418;7.286;2023-09-19T10:43:18;99304.41;;;19.52;55.20
52855;BME280;38719;51.418;7.286;2023-09-19T10:45:49;99320.88;;;19.69;54.09
52855;BME280;38719;51.418;7.286;2023-09-19T10:48:20;99319.16;;;19.68;53.95
52855;BME280;38719;51.418;7.286;2023-09-19T10:50:57;99317.50;;;19.67;53.29
52855;BME280;38719;51.418;7.286;2023-09-19T10:53:28;99328.56;;;19.63;54.23
52855;BME280;38719;51.418;7.286;2023-09-19T10:56:01;99328.13;;;19.78;54.06
52855;BME280;38719;51.418;7.286;2023-09-19T10:58:36;99322.31;;;19.83;53.62
52855;BME280;38719;51.418;7.286;2023-09-19T11:01:07;99319.59;;;19.83;53.80
52855;BME280;38719;51.418;7.286;2023-09-19T11:03:39;99312.50;;;19.72;53.33
52855;BME280;38719;51.418;7.286;2023-09-19T11:06:12;99318.34;;;19.87;53.55
52855;BME280;38719;51.418;7.286;2023-09-19T11:08:55;99326.72;;;19.93;53.13
52855;BME280;38719;51.418;7.286;2023-09-19T11:11:56;99327.16;;;19.79;53.21
52855;BME280;38719;51.418;7.286;2023-09-19T11:14:30;99316.91;;;19.73;52.57
52855;BME280;38719;51.418;7.286;2023-09-19T11:20:18;99315.47;;;19.98;53.10
52855;BME280;38719;51.418;7.286;2023-09-19T11:23:21;99307.31;;;20.18;52.55
52855;BME280;38719;51.418;7.286;2023-09-19T11:25:54;99317.16;;;20.19;51.75
52855;BME280;38719;51.418;7.286;2023-09-19T11:28:34;99311.44;;;20.22;51.78
52855;BME280;38719;51.418;7.286;2023-09-19T11:34:37;99305.63;;;20.54;51.50
52855;BME280;38719;51.418;7.286;2023-09-19T11:40:45;99317.66;;;20.42;50.50
52855;BME280;38719;51.418;7.286;2023-09-19T11:43:30;99298.28;;;20.37;50.64
52855;BME280;38719;51.418;7.286;2023-09-19T11:46:05;99308.81;;;20.40;50.62
52855;BME280;38719;51.418;7.286;2023-09-19T11:48:35;99311.81;;;20.37;51.08
52855;BME280;38719;51.418;7.286;2023-09-19T11:51:17;99315.84;;;20.60;50.22
52855;BME280;38719;51.418;7.286;2023-09-19T11:53:51;99320.16;;;20.53;50.34
52855;BME280;38719;51.418;7.286;2023-09-19T11:56:20;99314.28;;;20.58;49.74
52855;BME280;38719;51.418;7.286;2023-09-19T11:58:52;99311.94;;;20.45;50.44
52855;BME280;38719;51.418;7.286;2023-09-19T12:01:23;99319.75;;;20.48;50.69
52855;BME280;38719;51.418;7.286;2023-09-19T12:03:53;99324.47;;;20.36;49.97
52855;BME280;38719;51.418;7.286;2023-09-19T12:06:24;99311.56;;;20.58;51.24
52855;BME280;38719;51.418;7.286;2023-09-19T12:08:52;99312.69;;;20.65;50.46
52855;BME280;38719;51.418;7.286;2023-09-19T12:11:22;99326.31;;;20.83;49.89
52855;BME280;38719;51.418;7.286;2023-09-19T12:13:54;99312.66;;;20.75;49.46
52855;BME280;38719;51.418;7.286;2023-09-19T12:16:25;99302.25;;;20.80;49.53
52855;BME280;38719;51.418;7.286;2023-09-19T12:18:57;99304.94;;;20.80;49.22
52855;BME280;38719;51.418;7.286;2023-09-19T12:21:26;99287.09;;;20.87;48.34
52855;BME280;38719;51.418;7.286;2023-09-19T12:24:00;99296.53;;;20.83;48.51
52855;BME280;38719;51.418;7.286;2023-09-19T12:26:38;99299.25;;;20.83;49.30
52855;BME280;38719;51.418;7.286;2023-09-19T12:29:12;99290.81;;;20.58;48.79
52855;BME280;38719;51.418;7.286;2023-09-19T12:31:51;99279.81;;;20.60;48.33
52855;BME280;38719;51.418;7.286;2023-09-19T12:34:22;99271.56;;;20.61;48.70
52855;BME280;38719;51.418;7.286;2023-09-19T12:37:06;99296.16;;;20.78;47.70
52855;BME280;38719;51.418;7.286;2023-09-19T12:39:39;99287.66;;;20.63;48.15
52855;BME280;38719;51.418;7.286;2023-09-19T12:42:12;99291.59;;;20.69;47.65
52855;BME280;38719;51.418;7.286;2023-09-19T12:44:44;99295.22;;;20.87;46.83
52855;BME280;38719;51.418;7.286;2023-09-19T12:47:13;99270.81;;;20.79;46.68
52855;BME280;38719;51.418;7.286;2023-09-19T12:50:06;99254.50;;;21.07;47.24
52855;BME280;38719;51.418;7.286;2023-09-19T12:52:35;99254.16;;;21.20;46.39
52855;BME280;38719;51.418;7.286;2023-09-19T12:55:04;99248.41;;;21.23;46.17
52855;BME280;38719;51.418;7.286;2023-09-19T12:57:33;99249.88;;;21.35;45.61
52855;BME280;38719;51.418;7.286;2023-09-19T13:00:03;99261.16;;;21.49;46.02
52855;BME280;38719;51.418;7.286;2023-09-19T13:02:32;99260.16;;;21.32;45.09
52855;BME280;38719;51.418;7.286;2023-09-19T13:05:00;99266.66;;;21.21;44.73
52855;BME280;38719;51.418;7.286;2023-09-19T13:07:40;99251.50;;;21.46;44.96
52855;BME280;38719;51.418;7.286;2023-09-19T13:10:12;99259.44;;;21.48;44.54
52855;BME280;38719;51.418;7.286;2023-09-19T13:12:43;99259.41;;;21.57;44.49
52855;BME280;38719;51.418;7.286;2023-09-19T13:15:15;99244.22;;;21.65;43.74
52855;BME280;38719;51.418;7.286;2023-09-19T13:17:47;99252.56;;;21.53;43.30
52855;BME280;38719;51.418;7.286;2023-09-19T13:20:23;99257.91;;;21.45;43.23
52855;BME280;38719;51.418;7.286;2023-09-19T13:22:54;99257.69;;;21.56;43.53
52855;BME280;38719;51.418;7.286;2023-09-19T13:25:26;99240.69;;;21.54;44.35
52855;BME280;38719;51.418;7.286;2023-09-19T13:27:57;99262.47;;;21.63;43.54
52855;BME280;38719;51.418;7.286;2023-09-19T13:30:27;99253.75;;;21.51;43.67